Odebolt, IA (51458)

12:33 AM CST on February 11, 2016 (GMT -0600)
Oxendales Arthur, IA | | Change Station
CLOSE
Current Station
Personal Weather Station
Location: Arthur, IA
Elevation: 1496 ft
Nearby Weather Stations

Elev 1496 ft 42.28 °N, 95.36 °W | Updated 16 seconds ago

Overcast
Overcast
10.0 °F
Feels Like 2 °F
N
4.7
Wind Variable Wind from ENE
Gusts 5.1 mph

Today
High -- | Low -- °F
--% Chance of Precip.
Yesterday
High -- | Low -- °F
Precip. -- in
Pressure 30.20 in
Visibility 10.0 miles
Clouds Overcast 2100 ft
Windchill 2 °F
Dew Point 8 °F
Humidity 91%
Rainfall 0.00 in
Snow Depth Not available.
7:23 AM 5:47 PM
Waxing Crescent, 10% visible
METAR KSLB 110615Z AUTO 07009KT 10SM OVC021 M11/M12 A3020 RMK AO2
Pressure 30.20 in
Visibility 10.0 miles
Clouds Overcast 2100 ft
Windchill 2 °F
Dew Point 8 °F
Humidity 91%
Rainfall 0.00 in
Snow Depth Not available.
7:23 AM 5:47 PM
Waxing Crescent, 10% visible
METAR KSLB 110615Z AUTO 07009KT 10SM OVC021 M11/M12 A3020 RMK AO2

10-Day Weather Forecast

Almanac

Astronomy

Feb. 11, 2016 Rise Set
Actual Time
Civil Twilight
Nautical Twilight
Astronomical Twilight
Moon
Length of Visible Light
Length of Day
Tomorrow will be .
, % of the Moon is Illuminated

Today's Extremes

State Highs State Lows

Community

WunderPhotos

Upload Photos

1,892,028 photos uploaded!

WunderBlog® & News

Nearby

Air Quality

  Air Quality AQ Index Pollutant
Not available.

Snow Depth

Station Depth Elevation

Earthquake Activity

City Distance Mag. Time & Date
Minimum magnitude displayed is 2.5.

Coastal Water Temperatures

Place Temperature

Stations

Nearby Weather Stations

Station Location Temp. Windchill Dew Point Humidity Wind Precip. Elev Updated Type
                   

Watches & Warnings

There are currently no watches in effect.